sensor_id;sensor_type;location;lat;lon;timestamp;P1;durP1;ratioP1;P2;durP2;ratioP2
73733;SDS011;62039;50.000;9.064;2023-01-19T00:00:44;8.90;;;6.73;;
73733;SDS011;62039;50.000;9.064;2023-01-19T00:03:10;9.13;;;6.13;;
73733;SDS011;62039;50.000;9.064;2023-01-19T00:05:38;9.00;;;6.43;;
73733;SDS011;62039;50.000;9.064;2023-01-19T00:08:04;7.17;;;6.30;;
73733;SDS011;62039;50.000;9.064;2023-01-19T00:10:31;21.63;;;11.40;;
73733;SDS011;62039;50.000;9.064;2023-01-19T00:12:57;20.97;;;12.37;;
73733;SDS011;62039;50.000;9.064;2023-01-19T00:15:24;16.03;;;9.53;;
73733;SDS011;62039;50.000;9.064;2023-01-19T00:17:51;11.43;;;7.37;;
73733;SDS011;62039;50.000;9.064;2023-01-19T00:20:17;8.47;;;6.17;;
73733;SDS011;62039;50.000;9.064;2023-01-19T00:22:45;10.43;;;7.47;;
73733;SDS011;62039;50.000;9.064;2023-01-19T00:25:12;9.63;;;6.93;;
73733;SDS011;62039;50.000;9.064;2023-01-19T00:27:38;11.33;;;7.60;;
73733;SDS011;62039;50.000;9.064;2023-01-19T00:30:05;8.93;;;6.63;;
73733;SDS011;62039;50.000;9.064;2023-01-19T00:32:33;9.77;;;6.30;;
73733;SDS011;62039;50.000;9.064;2023-01-19T00:34:59;9.03;;;5.87;;
73733;SDS011;62039;50.000;9.064;2023-01-19T00:37:26;9.47;;;6.63;;
73733;SDS011;62039;50.000;9.064;2023-01-19T00:39:54;8.40;;;6.20;;
73733;SDS011;62039;50.000;9.064;2023-01-19T00:42:20;8.83;;;5.73;;
73733;SDS011;62039;50.000;9.064;2023-01-19T00:44:47;6.83;;;6.03;;
73733;SDS011;62039;50.000;9.064;2023-01-19T00:47:13;7.30;;;5.20;;
73733;SDS011;62039;50.000;9.064;2023-01-19T00:49:40;8.83;;;5.70;;
73733;SDS011;62039;50.000;9.064;2023-01-19T00:52:06;8.90;;;6.37;;
73733;SDS011;62039;50.000;9.064;2023-01-19T00:54:33;8.17;;;6.33;;
73733;SDS011;62039;50.000;9.064;2023-01-19T00:57:01;8.50;;;5.70;;
73733;SDS011;62039;50.000;9.064;2023-01-19T00:59:28;7.93;;;5.83;;
73733;SDS011;62039;50.000;9.064;2023-01-19T01:01:54;8.20;;;5.70;;
73733;SDS011;62039;50.000;9.064;2023-01-19T01:04:21;7.77;;;4.97;;
73733;SDS011;62039;50.000;9.064;2023-01-19T01:06:47;8.53;;;5.80;;
73733;SDS011;62039;50.000;9.064;2023-01-19T01:09:14;7.87;;;5.60;;
73733;SDS011;62039;50.000;9.064;2023-01-19T01:11:41;7.53;;;5.53;;
73733;SDS011;62039;50.000;9.064;2023-01-19T01:14:10;8.80;;;5.27;;
73733;SDS011;62039;50.000;9.064;2023-01-19T01:16:37;9.60;;;5.70;;
73733;SDS011;62039;50.000;9.064;2023-01-19T01:19:04;7.23;;;5.00;;
73733;SDS011;62039;50.000;9.064;2023-01-19T01:21:31;6.63;;;5.30;;
73733;SDS011;62039;50.000;9.064;2023-01-19T01:23:57;7.93;;;4.83;;
73733;SDS011;62039;50.000;9.064;2023-01-19T01:26:24;7.30;;;5.50;;
73733;SDS011;62039;50.000;9.064;2023-01-19T01:28:53;9.03;;;5.73;;
73733;SDS011;62039;50.000;9.064;2023-01-19T01:31:20;7.90;;;5.47;;
73733;SDS011;62039;50.000;9.064;2023-01-19T01:33:47;7.67;;;5.13;;
73733;SDS011;62039;50.000;9.064;2023-01-19T01:36:14;6.77;;;4.67;;
73733;SDS011;62039;50.000;9.064;2023-01-19T01:38:40;5.50;;;4.73;;
73733;SDS011;62039;50.000;9.064;2023-01-19T01:41:07;8.27;;;5.20;;
73733;SDS011;62039;50.000;9.064;2023-01-19T01:43:41;6.37;;;5.10;;
73733;SDS011;62039;50.000;9.064;2023-01-19T01:46:12;7.63;;;4.87;;
73733;SDS011;62039;50.000;9.064;2023-01-19T01:48:40;6.63;;;4.97;;
73733;SDS011;62039;50.000;9.064;2023-01-19T01:51:11;6.80;;;4.93;;
73733;SDS011;62039;50.000;9.064;2023-01-19T01:53:40;7.63;;;5.10;;
73733;SDS011;62039;50.000;9.064;2023-01-19T01:56:08;7.07;;;5.10;;
73733;SDS011;62039;50.000;9.064;2023-01-19T01:58:38;5.70;;;4.30;;
73733;SDS011;62039;50.000;9.064;2023-01-19T02:01:05;6.47;;;4.90;;
73733;SDS011;62039;50.000;9.064;2023-01-19T02:03:32;6.97;;;4.80;;
73733;SDS011;62039;50.000;9.064;2023-01-19T02:06:00;8.27;;;5.43;;
73733;SDS011;62039;50.000;9.064;2023-01-19T02:08:31;7.50;;;5.60;;
73733;SDS011;62039;50.000;9.064;2023-01-19T02:11:01;6.23;;;5.03;;
73733;SDS011;62039;50.000;9.064;2023-01-19T02:13:28;8.20;;;5.40;;
73733;SDS011;62039;50.000;9.064;2023-01-19T02:15:56;8.43;;;5.40;;
73733;SDS011;62039;50.000;9.064;2023-01-19T02:18:25;5.30;;;4.40;;
73733;SDS011;62039;50.000;9.064;2023-01-19T02:20:55;8.30;;;6.17;;
73733;SDS011;62039;50.000;9.064;2023-01-19T02:23:32;8.03;;;5.70;;
73733;SDS011;62039;50.000;9.064;2023-01-19T02:26:03;8.50;;;5.70;;
73733;SDS011;62039;50.000;9.064;2023-01-19T02:28:31;6.97;;;5.00;;
73733;SDS011;62039;50.000;9.064;2023-01-19T02:30:58;7.20;;;4.70;;
73733;SDS011;62039;50.000;9.064;2023-01-19T02:33:25;8.07;;;6.00;;
73733;SDS011;62039;50.000;9.064;2023-01-19T02:35:51;6.80;;;5.17;;
73733;SDS011;62039;50.000;9.064;2023-01-19T02:38:20;6.43;;;5.10;;
73733;SDS011;62039;50.000;9.064;2023-01-19T02:40:49;5.47;;;4.60;;
73733;SDS011;62039;50.000;9.064;2023-01-19T02:43:17;9.17;;;5.73;;
73733;SDS011;62039;50.000;9.064;2023-01-19T02:45:45;6.47;;;5.20;;
73733;SDS011;62039;50.000;9.064;2023-01-19T02:48:12;6.23;;;5.07;;
73733;SDS011;62039;50.000;9.064;2023-01-19T02:50:40;7.30;;;5.50;;
73733;SDS011;62039;50.000;9.064;2023-01-19T02:53:11;6.93;;;5.10;;
73733;SDS011;62039;50.000;9.064;2023-01-19T02:55:52;5.60;;;4.57;;
73733;SDS011;62039;50.000;9.064;2023-01-19T02:58:26;5.27;;;4.73;;
73733;SDS011;62039;50.000;9.064;2023-01-19T03:00:59;7.33;;;4.47;;
73733;SDS011;62039;50.000;9.064;2023-01-19T03:03:38;7.63;;;4.63;;
73733;SDS011;62039;50.000;9.064;2023-01-19T03:06:11;6.93;;;4.87;;
73733;SDS011;62039;50.000;9.064;2023-01-19T03:08:51;5.83;;;4.53;;
73733;SDS011;62039;50.000;9.064;2023-01-19T03:11:21;7.03;;;4.60;;
73733;SDS011;62039;50.000;9.064;2023-01-19T03:13:55;10.90;;;6.50;;
73733;SDS011;62039;50.000;9.064;2023-01-19T03:16:28;8.43;;;5.70;;
73733;SDS011;62039;50.000;9.064;2023-01-19T03:19:03;6.60;;;4.80;;
73733;SDS011;62039;50.000;9.064;2023-01-19T03:21:34;8.53;;;4.90;;
73733;SDS011;62039;50.000;9.064;2023-01-19T03:24:03;7.07;;;5.17;;
73733;SDS011;62039;50.000;9.064;2023-01-19T03:26:35;6.90;;;4.97;;
73733;SDS011;62039;50.000;9.064;2023-01-19T03:29:04;5.90;;;4.70;;
73733;SDS011;62039;50.000;9.064;2023-01-19T03:31:33;6.30;;;5.00;;
73733;SDS011;62039;50.000;9.064;2023-01-19T03:34:02;5.97;;;4.67;;
73733;SDS011;62039;50.000;9.064;2023-01-19T03:36:33;5.73;;;4.33;;
73733;SDS011;62039;50.000;9.064;2023-01-19T03:39:02;6.17;;;4.93;;
73733;SDS011;62039;50.000;9.064;2023-01-19T03:41:30;7.30;;;4.73;;
73733;SDS011;62039;50.000;9.064;2023-01-19T03:44:00;5.80;;;4.17;;
73733;SDS011;62039;50.000;9.064;2023-01-19T03:46:28;6.23;;;5.10;;
73733;SDS011;62039;50.000;9.064;2023-01-19T03:48:56;6.63;;;5.27;;
73733;SDS011;62039;50.000;9.064;2023-01-19T03:51:24;7.27;;;5.30;;
73733;SDS011;62039;50.000;9.064;2023-01-19T03:53:51;5.63;;;4.53;;
73733;SDS011;62039;50.000;9.064;2023-01-19T03:56:18;7.53;;;4.90;;
73733;SDS011;62039;50.000;9.064;2023-01-19T03:58:46;7.70;;;5.17;;
73733;SDS011;62039;50.000;9.064;2023-01-19T04:01:14;5.73;;;4.77;;
73733;SDS011;62039;50.000;9.064;2023-01-19T04:03:41;6.50;;;4.93;;
73733;SDS011;62039;50.000;9.064;2023-01-19T04:06:08;6.83;;;5.17;;
73733;SDS011;62039;50.000;9.064;2023-01-19T04:08:35;5.73;;;4.70;;
73733;SDS011;62039;50.000;9.064;2023-01-19T04:11:02;6.33;;;4.87;;
73733;SDS011;62039;50.000;9.064;2023-01-19T04:13:28;7.07;;;5.43;;
73733;SDS011;62039;50.000;9.064;2023-01-19T04:15:58;8.10;;;5.27;;
73733;SDS011;62039;50.000;9.064;2023-01-19T04:18:26;6.30;;;5.17;;
73733;SDS011;62039;50.000;9.064;2023-01-19T04:20:53;8.93;;;5.50;;
73733;SDS011;62039;50.000;9.064;2023-01-19T04:23:20;7.27;;;5.50;;
73733;SDS011;62039;50.000;9.064;2023-01-19T04:25:46;7.80;;;5.17;;
73733;SDS011;62039;50.000;9.064;2023-01-19T04:28:13;6.97;;;5.03;;
73733;SDS011;62039;50.000;9.064;2023-01-19T04:30:39;6.57;;;4.73;;
73733;SDS011;62039;50.000;9.064;2023-01-19T04:33:06;6.40;;;4.90;;
73733;SDS011;62039;50.000;9.064;2023-01-19T04:35:34;9.03;;;5.37;;
73733;SDS011;62039;50.000;9.064;2023-01-19T04:38:00;6.73;;;5.47;;
73733;SDS011;62039;50.000;9.064;2023-01-19T04:40:27;8.80;;;5.70;;
73733;SDS011;62039;50.000;9.064;2023-01-19T04:42:53;7.80;;;5.67;;
73733;SDS011;62039;50.000;9.064;2023-01-19T04:45:20;9.07;;;6.10;;
73733;SDS011;62039;50.000;9.064;2023-01-19T04:47:46;6.93;;;5.10;;
73733;SDS011;62039;50.000;9.064;2023-01-19T04:50:15;7.97;;;5.30;;
73733;SDS011;62039;50.000;9.064;2023-01-19T04:52:43;5.87;;;4.90;;
73733;SDS011;62039;50.000;9.064;2023-01-19T04:55:09;6.17;;;4.90;;
73733;SDS011;62039;50.000;9.064;2023-01-19T04:57:36;8.40;;;5.30;;
73733;SDS011;62039;50.000;9.064;2023-01-19T05:00:02;6.10;;;5.30;;
73733;SDS011;62039;50.000;9.064;2023-01-19T05:02:29;6.80;;;5.03;;
73733;SDS011;62039;50.000;9.064;2023-01-19T05:04:56;6.03;;;5.07;;
73733;SDS011;62039;50.000;9.064;2023-01-19T05:07:23;9.67;;;4.90;;
73733;SDS011;62039;50.000;9.064;2023-01-19T05:09:50;9.17;;;6.10;;
73733;SDS011;62039;50.000;9.064;2023-01-19T05:12:17;9.33;;;6.50;;
73733;SDS011;62039;50.000;9.064;2023-01-19T05:14:43;6.70;;;5.83;;
73733;SDS011;62039;50.000;9.064;2023-01-19T05:17:10;7.80;;;5.73;;
73733;SDS011;62039;50.000;9.064;2023-01-19T05:19:37;8.03;;;5.60;;
73733;SDS011;62039;50.000;9.064;2023-01-19T05:22:04;8.80;;;6.33;;
73733;SDS011;62039;50.000;9.064;2023-01-19T05:24:31;8.27;;;5.93;;
73733;SDS011;62039;50.000;9.064;2023-01-19T05:26:59;9.10;;;6.10;;
73733;SDS011;62039;50.000;9.064;2023-01-19T05:29:25;8.87;;;6.60;;
73733;SDS011;62039;50.000;9.064;2023-01-19T05:31:52;6.83;;;5.33;;
73733;SDS011;62039;50.000;9.064;2023-01-19T05:34:19;9.67;;;6.40;;
73733;SDS011;62039;50.000;9.064;2023-01-19T05:36:45;10.87;;;7.17;;
73733;SDS011;62039;50.000;9.064;2023-01-19T05:39:12;9.63;;;6.40;;
73733;SDS011;62039;50.000;9.064;2023-01-19T05:41:38;7.97;;;5.80;;
73733;SDS011;62039;50.000;9.064;2023-01-19T05:44:06;9.00;;;6.60;;
73733;SDS011;62039;50.000;9.064;2023-01-19T05:46:34;7.83;;;5.80;;
73733;SDS011;62039;50.000;9.064;2023-01-19T05:49:01;10.17;;;5.83;;
73733;SDS011;62039;50.000;9.064;2023-01-19T05:51:27;7.57;;;5.63;;
73733;SDS011;62039;50.000;9.064;2023-01-19T05:53:54;8.80;;;5.90;;
73733;SDS011;62039;50.000;9.064;2023-01-19T05:56:20;6.60;;;5.87;;
73733;SDS011;62039;50.000;9.064;2023-01-19T05:58:47;7.03;;;5.90;;
73733;SDS011;62039;50.000;9.064;2023-01-19T06:01:15;7.23;;;5.53;;
73733;SDS011;62039;50.000;9.064;2023-01-19T06:03:41;7.70;;;5.63;;
73733;SDS011;62039;50.000;9.064;2023-01-19T06:06:08;6.87;;;5.67;;
73733;SDS011;62039;50.000;9.064;2023-01-19T06:08:34;8.70;;;5.67;;
73733;SDS011;62039;50.000;9.064;2023-01-19T06:11:01;7.17;;;5.77;;
73733;SDS011;62039;50.000;9.064;2023-01-19T06:13:31;6.80;;;5.83;;
73733;SDS011;62039;50.000;9.064;2023-01-19T06:15:57;8.47;;;5.67;;
73733;SDS011;62039;50.000;9.064;2023-01-19T06:18:26;9.30;;;6.50;;
73733;SDS011;62039;50.000;9.064;2023-01-19T06:20:52;8.97;;;5.90;;
73733;SDS011;62039;50.000;9.064;2023-01-19T06:23:19;9.00;;;5.37;;
73733;SDS011;62039;50.000;9.064;2023-01-19T06:25:46;7.17;;;5.67;;
73733;SDS011;62039;50.000;9.064;2023-01-19T06:28:14;8.23;;;5.70;;
73733;SDS011;62039;50.000;9.064;2023-01-19T06:30:40;7.73;;;6.07;;
73733;SDS011;62039;50.000;9.064;2023-01-19T06:33:07;6.53;;;5.27;;
73733;SDS011;62039;50.000;9.064;2023-01-19T06:35:35;9.93;;;6.87;;
73733;SDS011;62039;50.000;9.064;2023-01-19T06:38:01;10.33;;;6.97;;
73733;SDS011;62039;50.000;9.064;2023-01-19T06:40:28;10.17;;;6.70;;
73733;SDS011;62039;50.000;9.064;2023-01-19T06:42:54;9.43;;;7.27;;
73733;SDS011;62039;50.000;9.064;2023-01-19T06:45:21;12.50;;;7.37;;
73733;SDS011;62039;50.000;9.064;2023-01-19T06:47:47;9.60;;;6.93;;
73733;SDS011;62039;50.000;9.064;2023-01-19T06:50:14;8.97;;;6.67;;
73733;SDS011;62039;50.000;9.064;2023-01-19T06:52:42;10.20;;;7.67;;
73733;SDS011;62039;50.000;9.064;2023-01-19T06:55:09;9.67;;;7.43;;
73733;SDS011;62039;50.000;9.064;2023-01-19T06:57:36;9.23;;;6.67;;
73733;SDS011;62039;50.000;9.064;2023-01-19T07:00:03;10.50;;;7.63;;
73733;SDS011;62039;50.000;9.064;2023-01-19T07:02:30;14.70;;;10.43;;
73733;SDS011;62039;50.000;9.064;2023-01-19T07:04:57;13.43;;;8.67;;
73733;SDS011;62039;50.000;9.064;2023-01-19T07:07:24;12.67;;;9.67;;
73733;SDS011;62039;50.000;9.064;2023-01-19T07:09:52;9.40;;;7.87;;
73733;SDS011;62039;50.000;9.064;2023-01-19T07:12:19;10.17;;;7.43;;
73733;SDS011;62039;50.000;9.064;2023-01-19T07:14:46;11.33;;;8.10;;
73733;SDS011;62039;50.000;9.064;2023-01-19T07:17:12;10.60;;;8.00;;
73733;SDS011;62039;50.000;9.064;2023-01-19T07:19:39;10.23;;;7.30;;
73733;SDS011;62039;50.000;9.064;2023-01-19T07:22:05;9.57;;;7.00;;
73733;SDS011;62039;50.000;9.064;2023-01-19T07:24:32;8.87;;;6.77;;
73733;SDS011;62039;50.000;9.064;2023-01-19T07:27:00;8.93;;;6.70;;
73733;SDS011;62039;50.000;9.064;2023-01-19T07:29:26;9.93;;;7.13;;
73733;SDS011;62039;50.000;9.064;2023-01-19T07:31:53;9.17;;;7.17;;
73733;SDS011;62039;50.000;9.064;2023-01-19T07:34:19;8.67;;;6.47;;
73733;SDS011;62039;50.000;9.064;2023-01-19T07:36:46;7.53;;;6.37;;
73733;SDS011;62039;50.000;9.064;2023-01-19T07:39:13;11.17;;;7.77;;
73733;SDS011;62039;50.000;9.064;2023-01-19T07:41:40;7.70;;;6.67;;
73733;SDS011;62039;50.000;9.064;2023-01-19T07:44:08;9.20;;;6.67;;
73733;SDS011;62039;50.000;9.064;2023-01-19T07:46:34;7.53;;;6.73;;
73733;SDS011;62039;50.000;9.064;2023-01-19T07:49:01;10.10;;;7.90;;
73733;SDS011;62039;50.000;9.064;2023-01-19T07:51:27;8.70;;;7.53;;
73733;SDS011;62039;50.000;9.064;2023-01-19T07:53:54;8.57;;;7.53;;
73733;SDS011;62039;50.000;9.064;2023-01-19T07:56:20;11.43;;;7.43;;
73733;SDS011;62039;50.000;9.064;2023-01-19T07:58:47;7.83;;;6.83;;
73733;SDS011;62039;50.000;9.064;2023-01-19T08:01:15;10.27;;;7.53;;
73733;SDS011;62039;50.000;9.064;2023-01-19T08:03:42;9.07;;;7.20;;
73733;SDS011;62039;50.000;9.064;2023-01-19T08:06:09;10.63;;;8.47;;
73733;SDS011;62039;50.000;9.064;2023-01-19T08:08:43;11.27;;;8.57;;
73733;SDS011;62039;50.000;9.064;2023-01-19T08:11:09;8.97;;;7.47;;
73733;SDS011;62039;50.000;9.064;2023-01-19T08:13:36;7.73;;;6.73;;
73733;SDS011;62039;50.000;9.064;2023-01-19T08:16:03;8.00;;;6.70;;
73733;SDS011;62039;50.000;9.064;2023-01-19T08:18:31;8.37;;;6.43;;
73733;SDS011;62039;50.000;9.064;2023-01-19T08:20:58;7.70;;;6.60;;
73733;SDS011;62039;50.000;9.064;2023-01-19T08:23:24;6.37;;;5.57;;
73733;SDS011;62039;50.000;9.064;2023-01-19T08:25:51;7.67;;;6.03;;
73733;SDS011;62039;50.000;9.064;2023-01-19T08:28:17;7.77;;;5.77;;
73733;SDS011;62039;50.000;9.064;2023-01-19T08:30:44;8.67;;;6.40;;
73733;SDS011;62039;50.000;9.064;2023-01-19T08:33:11;6.97;;;5.87;;
73733;SDS011;62039;50.000;9.064;2023-01-19T08:35:40;6.60;;;5.83;;
73733;SDS011;62039;50.000;9.064;2023-01-19T08:38:08;8.93;;;6.70;;
73733;SDS011;62039;50.000;9.064;2023-01-19T08:40:36;10.37;;;7.57;;
73733;SDS011;62039;50.000;9.064;2023-01-19T08:43:04;15.57;;;10.17;;
73733;SDS011;62039;50.000;9.064;2023-01-19T08:45:33;13.97;;;10.10;;
73733;SDS011;62039;50.000;9.064;2023-01-19T08:48:00;12.30;;;9.40;;
73733;SDS011;62039;50.000;9.064;2023-01-19T08:50:27;15.40;;;10.97;;
73733;SDS011;62039;50.000;9.064;2023-01-19T08:52:56;11.20;;;8.80;;
73733;SDS011;62039;50.000;9.064;2023-01-19T08:55:23;10.20;;;8.33;;
73733;SDS011;62039;50.000;9.064;2023-01-19T08:57:50;8.23;;;7.03;;
73733;SDS011;62039;50.000;9.064;2023-01-19T09:00:17;7.53;;;6.73;;
73733;SDS011;62039;50.000;9.064;2023-01-19T09:02:44;7.97;;;7.00;;
73733;SDS011;62039;50.000;9.064;2023-01-19T09:05:11;8.83;;;7.07;;
73733;SDS011;62039;50.000;9.064;2023-01-19T09:07:38;8.03;;;7.23;;
73733;SDS011;62039;50.000;9.064;2023-01-19T09:10:06;9.43;;;7.90;;
73733;SDS011;62039;50.000;9.064;2023-01-19T09:12:34;11.83;;;8.73;;
73733;SDS011;62039;50.000;9.064;2023-01-19T09:15:00;8.03;;;7.13;;
73733;SDS011;62039;50.000;9.064;2023-01-19T09:17:27;7.40;;;6.60;;
73733;SDS011;62039;50.000;9.064;2023-01-19T09:19:53;7.90;;;7.10;;
73733;SDS011;62039;50.000;9.064;2023-01-19T09:22:20;9.83;;;6.97;;
73733;SDS011;62039;50.000;9.064;2023-01-19T09:24:46;7.20;;;6.27;;
73733;SDS011;62039;50.000;9.064;2023-01-19T09:27:14;6.87;;;5.90;;
73733;SDS011;62039;50.000;9.064;2023-01-19T09:29:41;7.23;;;5.80;;
73733;SDS011;62039;50.000;9.064;2023-01-19T09:32:07;6.43;;;5.70;;
73733;SDS011;62039;50.000;9.064;2023-01-19T09:34:34;7.27;;;5.93;;
73733;SDS011;62039;50.000;9.064;2023-01-19T09:37:00;9.10;;;7.00;;
73733;SDS011;62039;50.000;9.064;2023-01-19T09:39:27;8.53;;;7.43;;
73733;SDS011;62039;50.000;9.064;2023-01-19T09:41:55;8.17;;;6.93;;
73733;SDS011;62039;50.000;9.064;2023-01-19T09:44:27;9.10;;;8.00;;
73733;SDS011;62039;50.000;9.064;2023-01-19T09:46:57;8.53;;;6.80;;
73733;SDS011;62039;50.000;9.064;2023-01-19T09:49:25;8.77;;;7.37;;
73733;SDS011;62039;50.000;9.064;2023-01-19T09:51:56;7.67;;;6.87;;
73733;SDS011;62039;50.000;9.064;2023-01-19T09:54:27;7.27;;;6.20;;
73733;SDS011;62039;50.000;9.064;2023-01-19T09:56:56;6.63;;;5.97;;
73733;SDS011;62039;50.000;9.064;2023-01-19T09:59:23;6.57;;;5.47;;
73733;SDS011;62039;50.000;9.064;2023-01-19T10:01:59;8.80;;;7.77;;
73733;SDS011;62039;50.000;9.064;2023-01-19T10:04:33;8.23;;;7.10;;
73733;SDS011;62039;50.000;9.064;2023-01-19T10:07:15;8.57;;;6.30;;
73733;SDS011;62039;50.000;9.064;2023-01-19T10:09:55;7.57;;;6.57;;
73733;SDS011;62039;50.000;9.064;2023-01-19T10:12:30;10.03;;;6.33;;
73733;SDS011;62039;50.000;9.064;2023-01-19T10:15:12;6.93;;;5.83;;
73733;SDS011;62039;50.000;9.064;2023-01-19T10:17:46;7.63;;;6.50;;
73733;SDS011;62039;50.000;9.064;2023-01-19T10:20:21;5.83;;;4.90;;
73733;SDS011;62039;50.000;9.064;2023-01-19T10:22:54;7.33;;;6.57;;
73733;SDS011;62039;50.000;9.064;2023-01-19T10:25:23;6.50;;;5.30;;
73733;SDS011;62039;50.000;9.064;2023-01-19T10:27:50;8.13;;;6.80;;
73733;SDS011;62039;50.000;9.064;2023-01-19T10:30:17;6.87;;;6.10;;
73733;SDS011;62039;50.000;9.064;2023-01-19T10:32:48;7.57;;;6.50;;
73733;SDS011;62039;50.000;9.064;2023-01-19T10:35:15;8.13;;;6.83;;
73733;SDS011;62039;50.000;9.064;2023-01-19T10:37:43;8.03;;;6.67;;
73733;SDS011;62039;50.000;9.064;2023-01-19T10:40:14;8.83;;;6.17;;
73733;SDS011;62039;50.000;9.064;2023-01-19T10:42:47;7.43;;;6.63;;
73733;SDS011;62039;50.000;9.064;2023-01-19T10:45:14;8.27;;;6.57;;
73733;SDS011;62039;50.000;9.064;2023-01-19T10:47:41;6.33;;;5.70;;
73733;SDS011;62039;50.000;9.064;2023-01-19T10:53:00;6.40;;;5.47;;
73733;SDS011;62039;50.000;9.064;2023-01-19T10:55:29;7.17;;;6.07;;
73733;SDS011;62039;50.000;9.064;2023-01-19T10:57:57;7.23;;;5.67;;
73733;SDS011;62039;50.000;9.064;2023-01-19T11:00:29;7.70;;;5.07;;
73733;SDS011;62039;50.000;9.064;2023-01-19T11:02:58;6.87;;;5.40;;
73733;SDS011;62039;50.000;9.064;2023-01-19T11:05:26;5.10;;;4.40;;
73733;SDS011;62039;50.000;9.064;2023-01-19T11:07:55;5.27;;;4.53;;
73733;SDS011;62039;50.000;9.064;2023-01-19T11:10:22;5.30;;;4.53;;
73733;SDS011;62039;50.000;9.064;2023-01-19T11:13:00;4.50;;;4.10;;
73733;SDS011;62039;50.000;9.064;2023-01-19T11:15:30;5.03;;;3.70;;
73733;SDS011;62039;50.000;9.064;2023-01-19T11:17:59;5.90;;;4.70;;
73733;SDS011;62039;50.000;9.064;2023-01-19T11:20:28;4.73;;;4.17;;
73733;SDS011;62039;50.000;9.064;2023-01-19T11:23:05;5.70;;;4.47;;
73733;SDS011;62039;50.000;9.064;2023-01-19T11:25:33;5.43;;;4.93;;
73733;SDS011;62039;50.000;9.064;2023-01-19T11:28:01;4.73;;;4.23;;
73733;SDS011;62039;50.000;9.064;2023-01-19T11:30:28;5.13;;;4.63;;
73733;SDS011;62039;50.000;9.064;2023-01-19T11:32:56;4.93;;;4.43;;
73733;SDS011;62039;50.000;9.064;2023-01-19T11:35:30;5.77;;;4.60;;
73733;SDS011;62039;50.000;9.064;2023-01-19T11:38:14;9.23;;;6.57;;
73733;SDS011;62039;50.000;9.064;2023-01-19T11:40:46;6.97;;;5.70;;
73733;SDS011;62039;50.000;9.064;2023-01-19T11:43:16;6.17;;;5.37;;
73733;SDS011;62039;50.000;9.064;2023-01-19T11:45:44;6.77;;;5.83;;
73733;SDS011;62039;50.000;9.064;2023-01-19T11:48:13;8.03;;;5.60;;
73733;SDS011;62039;50.000;9.064;2023-01-19T11:50:46;6.60;;;5.90;;
73733;SDS011;62039;50.000;9.064;2023-01-19T11:53:17;6.40;;;5.60;;
73733;SDS011;62039;50.000;9.064;2023-01-19T11:55:48;6.80;;;6.10;;
73733;SDS011;62039;50.000;9.064;2023-01-19T11:58:19;5.93;;;5.30;;
73733;SDS011;62039;50.000;9.064;2023-01-19T12:00:47;6.47;;;5.23;;
73733;SDS011;62039;50.000;9.064;2023-01-19T12:03:18;7.70;;;6.07;;
73733;SDS011;62039;50.000;9.064;2023-01-19T12:05:50;8.60;;;6.20;;
73733;SDS011;62039;50.000;9.064;2023-01-19T12:08:22;5.70;;;5.10;;
73733;SDS011;62039;50.000;9.064;2023-01-19T12:10:51;7.40;;;6.20;;
73733;SDS011;62039;50.000;9.064;2023-01-19T12:13:21;6.50;;;5.67;;
73733;SDS011;62039;50.000;9.064;2023-01-19T12:15:50;8.50;;;6.87;;
73733;SDS011;62039;50.000;9.064;2023-01-19T12:18:21;7.60;;;6.80;;
73733;SDS011;62039;50.000;9.064;2023-01-19T12:20:50;10.43;;;7.93;;
73733;SDS011;62039;50.000;9.064;2023-01-19T12:23:23;11.60;;;8.93;;
73733;SDS011;62039;50.000;9.064;2023-01-19T12:26:03;11.67;;;8.93;;
73733;SDS011;62039;50.000;9.064;2023-01-19T12:28:46;9.00;;;8.10;;
73733;SDS011;62039;50.000;9.064;2023-01-19T12:31:14;7.83;;;7.03;;
73733;SDS011;62039;50.000;9.064;2023-01-19T12:33:43;6.60;;;5.80;;
73733;SDS011;62039;50.000;9.064;2023-01-19T12:36:09;8.13;;;7.17;;
73733;SDS011;62039;50.000;9.064;2023-01-19T12:38:54;6.67;;;5.83;;
73733;SDS011;62039;50.000;9.064;2023-01-19T12:41:23;7.17;;;6.20;;
73733;SDS011;62039;50.000;9.064;2023-01-19T12:46:48;6.57;;;5.63;;
73733;SDS011;62039;50.000;9.064;2023-01-19T12:49:23;6.97;;;5.90;;
73733;SDS011;62039;50.000;9.064;2023-01-19T12:51:53;10.60;;;8.40;;
73733;SDS011;62039;50.000;9.064;2023-01-19T12:54:38;12.70;;;9.53;;
73733;SDS011;62039;50.000;9.064;2023-01-19T12:57:18;21.40;;;15.33;;
73733;SDS011;62039;50.000;9.064;2023-01-19T12:59:53;12.07;;;9.83;;
73733;SDS011;62039;50.000;9.064;2023-01-19T13:05:16;12.20;;;6.63;;
73733;SDS011;62039;50.000;9.064;2023-01-19T13:11:11;10.50;;;7.30;;
73733;SDS011;62039;50.000;9.064;2023-01-19T13:13:45;10.17;;;7.90;;
73733;SDS011;62039;50.000;9.064;2023-01-19T13:16:56;14.00;;;11.93;;
73733;SDS011;62039;50.000;9.064;2023-01-19T13:19:34;12.63;;;8.73;;
73733;SDS011;62039;50.000;9.064;2023-01-19T13:25:12;13.33;;;9.67;;
73733;SDS011;62039;50.000;9.064;2023-01-19T13:27:53;16.23;;;10.90;;
73733;SDS011;62039;50.000;9.064;2023-01-19T13:30:20;11.97;;;9.23;;
73733;SDS011;62039;50.000;9.064;2023-01-19T13:32:49;9.70;;;8.20;;
73733;SDS011;62039;50.000;9.064;2023-01-19T13:35:17;10.90;;;8.53;;
73733;SDS011;62039;50.000;9.064;2023-01-19T13:37:44;11.30;;;10.10;;
73733;SDS011;62039;50.000;9.064;2023-01-19T13:40:15;13.43;;;10.20;;
73733;SDS011;62039;50.000;9.064;2023-01-19T13:42:45;9.37;;;8.37;;
73733;SDS011;62039;50.000;9.064;2023-01-19T13:45:20;9.77;;;7.57;;
73733;SDS011;62039;50.000;9.064;2023-01-19T13:47:52;8.60;;;7.70;;
73733;SDS011;62039;50.000;9.064;2023-01-19T13:50:22;8.67;;;6.97;;
73733;SDS011;62039;50.000;9.064;2023-01-19T13:52:50;8.13;;;6.83;;
73733;SDS011;62039;50.000;9.064;2023-01-19T13:55:17;12.07;;;7.23;;
73733;SDS011;62039;50.000;9.064;2023-01-19T13:57:44;9.13;;;6.90;;
73733;SDS011;62039;50.000;9.064;2023-01-19T14:00:18;7.43;;;6.20;;
73733;SDS011;62039;50.000;9.064;2023-01-19T14:02:50;9.67;;;7.63;;
73733;SDS011;62039;50.000;9.064;2023-01-19T14:05:20;7.93;;;6.60;;
73733;SDS011;62039;50.000;9.064;2023-01-19T14:07:47;7.00;;;6.00;;
73733;SDS011;62039;50.000;9.064;2023-01-19T14:10:24;8.13;;;6.50;;
73733;SDS011;62039;50.000;9.064;2023-01-19T14:12:56;6.90;;;6.20;;
73733;SDS011;62039;50.000;9.064;2023-01-19T14:15:26;8.77;;;7.63;;
73733;SDS011;62039;50.000;9.064;2023-01-19T14:18:09;8.57;;;7.20;;
73733;SDS011;62039;50.000;9.064;2023-01-19T14:20:50;9.53;;;7.60;;
73733;SDS011;62039;50.000;9.064;2023-01-19T14:29:23;16.90;;;12.40;;
73733;SDS011;62039;50.000;9.064;2023-01-19T14:32:03;12.80;;;10.20;;
73733;SDS011;62039;50.000;9.064;2023-01-19T14:34:33;11.90;;;10.57;;
73733;SDS011;62039;50.000;9.064;2023-01-19T14:37:02;10.80;;;8.10;;
73733;SDS011;62039;50.000;9.064;2023-01-19T14:39:30;11.83;;;8.40;;
73733;SDS011;62039;50.000;9.064;2023-01-19T14:41:59;11.03;;;9.37;;
73733;SDS011;62039;50.000;9.064;2023-01-19T14:44:29;12.10;;;9.70;;
73733;SDS011;62039;50.000;9.064;2023-01-19T14:47:00;15.67;;;12.37;;
73733;SDS011;62039;50.000;9.064;2023-01-19T14:49:29;10.87;;;8.73;;
73733;SDS011;62039;50.000;9.064;2023-01-19T14:51:58;10.87;;;8.17;;
73733;SDS011;62039;50.000;9.064;2023-01-19T14:54:30;8.90;;;7.67;;
73733;SDS011;62039;50.000;9.064;2023-01-19T14:57:00;8.50;;;7.10;;
73733;SDS011;62039;50.000;9.064;2023-01-19T14:59:27;7.93;;;7.10;;
73733;SDS011;62039;50.000;9.064;2023-01-19T15:01:53;11.97;;;9.23;;
73733;SDS011;62039;50.000;9.064;2023-01-19T15:04:22;11.57;;;8.70;;
73733;SDS011;62039;50.000;9.064;2023-01-19T15:06:48;10.87;;;8.20;;
73733;SDS011;62039;50.000;9.064;2023-01-19T15:09:15;21.00;;;13.50;;
73733;SDS011;62039;50.000;9.064;2023-01-19T15:11:41;11.13;;;8.33;;
73733;SDS011;62039;50.000;9.064;2023-01-19T15:14:09;10.83;;;8.53;;
73733;SDS011;62039;50.000;9.064;2023-01-19T15:16:38;12.20;;;9.15;;